sensor_id;sensor_type;location;lat;lon;timestamp;temperature;humidity
23744;DHT22;12052;53.478;10.182;2022-11-20T00:01:19;-40.00;99.90
23744;DHT22;12052;53.478;10.182;2022-11-20T00:03:45;-40.00;99.90
23744;DHT22;12052;53.478;10.182;2022-11-20T00:06:20;-40.00;99.90
23744;DHT22;12052;53.478;10.182;2022-11-20T00:08:46;-40.00;99.90
23744;DHT22;12052;53.478;10.182;2022-11-20T00:11:17;-40.00;99.90
23744;DHT22;12052;53.478;10.182;2022-11-20T00:13:48;-40.00;99.90
23744;DHT22;12052;53.478;10.182;2022-11-20T00:16:23;-40.00;99.90
23744;DHT22;12052;53.478;10.182;2022-11-20T00:18:57;-40.00;99.90
23744;DHT22;12052;53.478;10.182;2022-11-20T00:21:28;-40.00;99.90
23744;DHT22;12052;53.478;10.182;2022-11-20T00:23:56;-40.00;99.90
23744;DHT22;12052;53.478;10.182;2022-11-20T00:26:24;-40.00;99.90
23744;DHT22;12052;53.478;10.182;2022-11-20T00:28:57;-40.00;99.90
23744;DHT22;12052;53.478;10.182;2022-11-20T00:31:23;-40.00;99.90
23744;DHT22;12052;53.478;10.182;2022-11-20T00:33:53;-40.00;99.90
23744;DHT22;12052;53.478;10.182;2022-11-20T00:36:26;-40.00;99.90
23744;DHT22;12052;53.478;10.182;2022-11-20T00:38:57;-40.00;99.90
23744;DHT22;12052;53.478;10.182;2022-11-20T00:41:24;-40.00;99.90
23744;DHT22;12052;53.478;10.182;2022-11-20T00:43:52;-40.00;99.90
23744;DHT22;12052;53.478;10.182;2022-11-20T00:46:25;-40.00;99.90
23744;DHT22;12052;53.478;10.182;2022-11-20T00:48:51;-40.00;99.90
23744;DHT22;12052;53.478;10.182;2022-11-20T00:51:24;-40.00;99.90
23744;DHT22;12052;53.478;10.182;2022-11-20T00:53:57;-40.00;99.90
23744;DHT22;12052;53.478;10.182;2022-11-20T00:56:25;-40.00;99.90
23744;DHT22;12052;53.478;10.182;2022-11-20T00:58:51;-40.00;99.90
23744;DHT22;12052;53.478;10.182;2022-11-20T01:01:24;-40.00;99.90
23744;DHT22;12052;53.478;10.182;2022-11-20T01:03:52;-40.00;99.90
23744;DHT22;12052;53.478;10.182;2022-11-20T01:08:48;-40.00;99.90
23744;DHT22;12052;53.478;10.182;2022-11-20T01:11:21;-40.00;99.90
23744;DHT22;12052;53.478;10.182;2022-11-20T01:13:51;-40.00;99.90
23744;DHT22;12052;53.478;10.182;2022-11-20T01:16:42;-40.00;99.90
23744;DHT22;12052;53.478;10.182;2022-11-20T01:19:15;-40.00;99.90
23744;DHT22;12052;53.478;10.182;2022-11-20T01:21:43;-40.00;99.90
23744;DHT22;12052;53.478;10.182;2022-11-20T01:24:17;-40.00;99.90
23744;DHT22;12052;53.478;10.182;2022-11-20T01:26:45;-40.00;99.90
23744;DHT22;12052;53.478;10.182;2022-11-20T01:29:23;-40.00;99.90
23744;DHT22;12052;53.478;10.182;2022-11-20T01:31:49;-40.00;99.90
23744;DHT22;12052;53.478;10.182;2022-11-20T01:34:23;-40.00;99.90
23744;DHT22;12052;53.478;10.182;2022-11-20T01:36:52;-40.00;99.90
23744;DHT22;12052;53.478;10.182;2022-11-20T01:39:26;-40.00;99.90
23744;DHT22;12052;53.478;10.182;2022-11-20T01:41:59;-40.00;99.90
23744;DHT22;12052;53.478;10.182;2022-11-20T01:47:43;-40.00;99.90
23744;DHT22;12052;53.478;10.182;2022-11-20T01:50:19;-40.00;99.90
23744;DHT22;12052;53.478;10.182;2022-11-20T01:53:06;-40.00;99.90
23744;DHT22;12052;53.478;10.182;2022-11-20T01:55:39;-40.00;99.90
23744;DHT22;12052;53.478;10.182;2022-11-20T01:58:08;-40.00;99.90
23744;DHT22;12052;53.478;10.182;2022-11-20T02:00:37;-40.00;99.90
23744;DHT22;12052;53.478;10.182;2022-11-20T02:03:19;-40.00;99.90
23744;DHT22;12052;53.478;10.182;2022-11-20T02:08:24;-40.00;99.90
23744;DHT22;12052;53.478;10.182;2022-11-20T02:11:00;-40.00;99.90
23744;DHT22;12052;53.478;10.182;2022-11-20T02:13:26;-40.00;99.90
23744;DHT22;12052;53.478;10.182;2022-11-20T02:16:26;-40.00;99.90
23744;DHT22;12052;53.478;10.182;2022-11-20T02:18:54;-40.00;99.90
23744;DHT22;12052;53.478;10.182;2022-11-20T02:21:33;-40.00;99.90
23744;DHT22;12052;53.478;10.182;2022-11-20T02:24:15;-40.00;99.90
23744;DHT22;12052;53.478;10.182;2022-11-20T02:26:58;-40.00;99.90
23744;DHT22;12052;53.478;10.182;2022-11-20T02:29:53;-40.00;99.90
23744;DHT22;12052;53.478;10.182;2022-11-20T02:32:24;-40.00;99.90
23744;DHT22;12052;53.478;10.182;2022-11-20T02:34:52;-40.00;99.90
23744;DHT22;12052;53.478;10.182;2022-11-20T02:37:22;-40.00;99.90
23744;DHT22;12052;53.478;10.182;2022-11-20T02:39:59;-40.00;99.90
23744;DHT22;12052;53.478;10.182;2022-11-20T02:42:25;-40.00;99.90
23744;DHT22;12052;53.478;10.182;2022-11-20T02:44:51;-40.00;99.90
23744;DHT22;12052;53.478;10.182;2022-11-20T02:47:23;-40.00;99.90
23744;DHT22;12052;53.478;10.182;2022-11-20T02:49:51;-40.00;99.90
23744;DHT22;12052;53.478;10.182;2022-11-20T02:52:17;-40.00;99.90
23744;DHT22;12052;53.478;10.182;2022-11-20T02:54:47;-40.00;99.90
23744;DHT22;12052;53.478;10.182;2022-11-20T02:57:13;-40.00;99.90
23744;DHT22;12052;53.478;10.182;2022-11-20T02:59:44;-40.00;99.90
23744;DHT22;12052;53.478;10.182;2022-11-20T03:02:10;-40.00;99.90
23744;DHT22;12052;53.478;10.182;2022-11-20T03:04:38;-40.00;99.90
23744;DHT22;12052;53.478;10.182;2022-11-20T03:07:12;-40.00;99.90
23744;DHT22;12052;53.478;10.182;2022-11-20T03:09:41;-40.00;99.90
23744;DHT22;12052;53.478;10.182;2022-11-20T03:12:13;-40.00;99.90
23744;DHT22;12052;53.478;10.182;2022-11-20T03:14:49;-40.00;99.90
23744;DHT22;12052;53.478;10.182;2022-11-20T03:17:20;-40.00;99.90
23744;DHT22;12052;53.478;10.182;2022-11-20T03:19:48;-40.00;99.90
23744;DHT22;12052;53.478;10.182;2022-11-20T03:22:16;-40.00;99.90
23744;DHT22;12052;53.478;10.182;2022-11-20T03:24:44;-40.00;99.90
23744;DHT22;12052;53.478;10.182;2022-11-20T03:27:10;-40.00;99.90
23744;DHT22;12052;53.478;10.182;2022-11-20T03:29:36;-40.00;99.90
23744;DHT22;12052;53.478;10.182;2022-11-20T03:32:07;-40.00;99.90
23744;DHT22;12052;53.478;10.182;2022-11-20T03:34:40;-40.00;99.90
23744;DHT22;12052;53.478;10.182;2022-11-20T03:37:08;-40.00;99.90
23744;DHT22;12052;53.478;10.182;2022-11-20T03:39:39;-40.00;99.90
23744;DHT22;12052;53.478;10.182;2022-11-20T03:42:08;-40.00;99.90
23744;DHT22;12052;53.478;10.182;2022-11-20T03:44:54;-40.00;99.90
23744;DHT22;12052;53.478;10.182;2022-11-20T03:47:26;-40.00;99.90
23744;DHT22;12052;53.478;10.182;2022-11-20T03:49:56;-40.00;99.90
23744;DHT22;12052;53.478;10.182;2022-11-20T03:52:27;-40.00;99.90
23744;DHT22;12052;53.478;10.182;2022-11-20T03:54:56;-40.00;99.90
23744;DHT22;12052;53.478;10.182;2022-11-20T03:57:27;-40.00;99.90
23744;DHT22;12052;53.478;10.182;2022-11-20T03:59:53;-40.00;99.90
23744;DHT22;12052;53.478;10.182;2022-11-20T04:02:21;-40.00;99.90
23744;DHT22;12052;53.478;10.182;2022-11-20T04:04:52;-40.00;99.90
23744;DHT22;12052;53.478;10.182;2022-11-20T04:07:17;-40.00;99.90
23744;DHT22;12052;53.478;10.182;2022-11-20T04:09:43;-40.00;99.90
23744;DHT22;12052;53.478;10.182;2022-11-20T04:12:09;-40.00;99.90
23744;DHT22;12052;53.478;10.182;2022-11-20T04:14:39;-40.00;99.90
23744;DHT22;12052;53.478;10.182;2022-11-20T04:17:11;-40.00;99.90
23744;DHT22;12052;53.478;10.182;2022-11-20T04:19:43;-40.00;99.90
23744;DHT22;12052;53.478;10.182;2022-11-20T04:22:08;-40.00;99.90
23744;DHT22;12052;53.478;10.182;2022-11-20T04:24:40;-40.00;99.90
23744;DHT22;12052;53.478;10.182;2022-11-20T04:27:13;-40.00;99.90
23744;DHT22;12052;53.478;10.182;2022-11-20T04:29:44;-40.00;99.90
23744;DHT22;12052;53.478;10.182;2022-11-20T04:32:10;-40.00;99.90
23744;DHT22;12052;53.478;10.182;2022-11-20T04:34:36;124.50;99.90
23744;DHT22;12052;53.478;10.182;2022-11-20T04:37:01;124.50;99.90
23744;DHT22;12052;53.478;10.182;2022-11-20T04:39:27;124.50;99.90
23744;DHT22;12052;53.478;10.182;2022-11-20T04:41:59;124.50;99.90
23744;DHT22;12052;53.478;10.182;2022-11-20T04:44:48;124.50;99.90
23744;DHT22;12052;53.478;10.182;2022-11-20T04:47:14;124.50;99.90
23744;DHT22;12052;53.478;10.182;2022-11-20T04:49:42;124.50;99.90
23744;DHT22;12052;53.478;10.182;2022-11-20T04:52:13;124.50;99.90
23744;DHT22;12052;53.478;10.182;2022-11-20T04:54:39;124.50;99.90
23744;DHT22;12052;53.478;10.182;2022-11-20T04:57:08;124.50;99.90
23744;DHT22;12052;53.478;10.182;2022-11-20T04:59:34;124.50;99.90
23744;DHT22;12052;53.478;10.182;2022-11-20T05:02:00;124.50;99.90
23744;DHT22;12052;53.478;10.182;2022-11-20T05:04:29;124.50;99.90
23744;DHT22;12052;53.478;10.182;2022-11-20T05:07:05;124.50;99.90
23744;DHT22;12052;53.478;10.182;2022-11-20T05:09:31;124.50;99.90
23744;DHT22;12052;53.478;10.182;2022-11-20T05:12:01;124.50;99.90
23744;DHT22;12052;53.478;10.182;2022-11-20T05:14:29;124.50;99.90
23744;DHT22;12052;53.478;10.182;2022-11-20T05:17:00;124.50;99.90
23744;DHT22;12052;53.478;10.182;2022-11-20T05:19:28;124.50;99.90
23744;DHT22;12052;53.478;10.182;2022-11-20T05:22:03;124.50;99.90
23744;DHT22;12052;53.478;10.182;2022-11-20T05:24:29;124.50;99.90
23744;DHT22;12052;53.478;10.182;2022-11-20T05:26:55;124.50;99.90
23744;DHT22;12052;53.478;10.182;2022-11-20T05:29:33;124.50;99.90
23744;DHT22;12052;53.478;10.182;2022-11-20T05:32:03;124.50;99.90
23744;DHT22;12052;53.478;10.182;2022-11-20T05:34:29;124.50;99.90
23744;DHT22;12052;53.478;10.182;2022-11-20T05:36:57;124.50;99.90
23744;DHT22;12052;53.478;10.182;2022-11-20T05:39:23;124.50;99.90
23744;DHT22;12052;53.478;10.182;2022-11-20T05:41:52;124.50;99.90
23744;DHT22;12052;53.478;10.182;2022-11-20T05:44:43;124.50;99.90
23744;DHT22;12052;53.478;10.182;2022-11-20T05:47:17;124.50;99.90
23744;DHT22;12052;53.478;10.182;2022-11-20T05:49:46;124.50;99.90
23744;DHT22;12052;53.478;10.182;2022-11-20T05:52:14;124.50;99.90
23744;DHT22;12052;53.478;10.182;2022-11-20T05:54:40;124.50;99.90
23744;DHT22;12052;53.478;10.182;2022-11-20T05:57:08;124.50;99.90
23744;DHT22;12052;53.478;10.182;2022-11-20T05:59:34;124.50;99.90
23744;DHT22;12052;53.478;10.182;2022-11-20T06:02:11;124.50;99.90
23744;DHT22;12052;53.478;10.182;2022-11-20T06:04:45;124.50;99.90
23744;DHT22;12052;53.478;10.182;2022-11-20T06:07:11;124.50;99.90
23744;DHT22;12052;53.478;10.182;2022-11-20T06:09:36;124.50;99.90
23744;DHT22;12052;53.478;10.182;2022-11-20T06:12:08;124.50;99.90
23744;DHT22;12052;53.478;10.182;2022-11-20T06:14:41;124.50;99.90
23744;DHT22;12052;53.478;10.182;2022-11-20T06:17:09;124.50;99.90
23744;DHT22;12052;53.478;10.182;2022-11-20T06:19:41;124.50;99.90
23744;DHT22;12052;53.478;10.182;2022-11-20T06:22:10;124.50;99.90
23744;DHT22;12052;53.478;10.182;2022-11-20T06:24:40;124.50;99.90
23744;DHT22;12052;53.478;10.182;2022-11-20T06:27:06;124.50;99.90
23744;DHT22;12052;53.478;10.182;2022-11-20T06:29:35;124.50;99.90
23744;DHT22;12052;53.478;10.182;2022-11-20T06:32:04;124.50;99.90
23744;DHT22;12052;53.478;10.182;2022-11-20T06:34:30;124.50;99.90
23744;DHT22;12052;53.478;10.182;2022-11-20T06:37:01;124.50;99.90
23744;DHT22;12052;53.478;10.182;2022-11-20T06:39:37;124.50;99.90
23744;DHT22;12052;53.478;10.182;2022-11-20T06:42:10;124.50;99.90
23744;DHT22;12052;53.478;10.182;2022-11-20T06:44:36;124.50;99.90
23744;DHT22;12052;53.478;10.182;2022-11-20T06:47:05;124.50;99.90
23744;DHT22;12052;53.478;10.182;2022-11-20T06:49:39;124.50;99.90
23744;DHT22;12052;53.478;10.182;2022-11-20T06:52:14;124.50;99.90
23744;DHT22;12052;53.478;10.182;2022-11-20T06:54:43;124.50;99.90
23744;DHT22;12052;53.478;10.182;2022-11-20T06:57:09;124.50;99.90
23744;DHT22;12052;53.478;10.182;2022-11-20T06:59:35;124.50;99.90
23744;DHT22;12052;53.478;10.182;2022-11-20T07:02:10;123.70;99.90
23744;DHT22;12052;53.478;10.182;2022-11-20T07:04:46;122.40;99.90
23744;DHT22;12052;53.478;10.182;2022-11-20T07:07:16;123.00;99.90
23744;DHT22;12052;53.478;10.182;2022-11-20T07:09:46;123.70;99.90
23744;DHT22;12052;53.478;10.182;2022-11-20T07:12:15;124.40;99.90
23744;DHT22;12052;53.478;10.182;2022-11-20T07:14:41;124.30;99.90
23744;DHT22;12052;53.478;10.182;2022-11-20T07:17:07;123.90;99.90
23744;DHT22;12052;53.478;10.182;2022-11-20T07:19:36;123.40;99.90
23744;DHT22;12052;53.478;10.182;2022-11-20T07:22:04;124.50;99.90
23744;DHT22;12052;53.478;10.182;2022-11-20T07:24:36;123.60;99.90
23744;DHT22;12052;53.478;10.182;2022-11-20T07:27:04;123.40;99.90
23744;DHT22;12052;53.478;10.182;2022-11-20T07:29:34;124.50;99.90
23744;DHT22;12052;53.478;10.182;2022-11-20T07:32:11;122.00;99.90
23744;DHT22;12052;53.478;10.182;2022-11-20T07:34:38;123.40;99.90
23744;DHT22;12052;53.478;10.182;2022-11-20T07:37:08;124.50;99.90
23744;DHT22;12052;53.478;10.182;2022-11-20T07:39:37;124.50;99.90
23744;DHT22;12052;53.478;10.182;2022-11-20T07:42:09;124.50;99.90
23744;DHT22;12052;53.478;10.182;2022-11-20T07:44:43;124.50;99.90
23744;DHT22;12052;53.478;10.182;2022-11-20T07:47:15;124.50;99.90
23744;DHT22;12052;53.478;10.182;2022-11-20T07:49:53;124.20;99.90
23744;DHT22;12052;53.478;10.182;2022-11-20T07:52:23;124.50;99.90
23744;DHT22;12052;53.478;10.182;2022-11-20T07:54:55;124.50;99.90
23744;DHT22;12052;53.478;10.182;2022-11-20T07:57:25;124.50;99.90
23744;DHT22;12052;53.478;10.182;2022-11-20T07:59:51;124.50;99.90
23744;DHT22;12052;53.478;10.182;2022-11-20T08:02:18;124.50;99.90
23744;DHT22;12052;53.478;10.182;2022-11-20T08:04:49;124.50;99.90
23744;DHT22;12052;53.478;10.182;2022-11-20T08:07:21;124.50;99.90
23744;DHT22;12052;53.478;10.182;2022-11-20T08:09:47;124.50;99.90
23744;DHT22;12052;53.478;10.182;2022-11-20T08:12:24;124.50;99.90
23744;DHT22;12052;53.478;10.182;2022-11-20T08:15:11;124.50;99.90
23744;DHT22;12052;53.478;10.182;2022-11-20T08:17:42;124.50;99.90
23744;DHT22;12052;53.478;10.182;2022-11-20T08:20:11;124.50;99.90
23744;DHT22;12052;53.478;10.182;2022-11-20T08:22:38;124.50;99.90
23744;DHT22;12052;53.478;10.182;2022-11-20T08:25:05;124.50;99.90
23744;DHT22;12052;53.478;10.182;2022-11-20T08:27:34;124.50;99.90
23744;DHT22;12052;53.478;10.182;2022-11-20T08:30:02;124.50;99.90
23744;DHT22;12052;53.478;10.182;2022-11-20T08:32:34;124.50;99.90
23744;DHT22;12052;53.478;10.182;2022-11-20T08:35:02;124.50;99.90
23744;DHT22;12052;53.478;10.182;2022-11-20T08:37:35;124.50;99.90
23744;DHT22;12052;53.478;10.182;2022-11-20T08:40:01;124.50;99.90
23744;DHT22;12052;53.478;10.182;2022-11-20T08:42:31;124.50;99.90
23744;DHT22;12052;53.478;10.182;2022-11-20T08:45:00;124.50;99.90
23744;DHT22;12052;53.478;10.182;2022-11-20T08:47:34;124.50;99.90
23744;DHT22;12052;53.478;10.182;2022-11-20T08:50:08;124.50;99.90
23744;DHT22;12052;53.478;10.182;2022-11-20T08:52:35;124.50;99.90
23744;DHT22;12052;53.478;10.182;2022-11-20T08:55:05;124.50;99.90
23744;DHT22;12052;53.478;10.182;2022-11-20T08:57:38;124.50;99.90
23744;DHT22;12052;53.478;10.182;2022-11-20T09:00:07;124.50;99.90
23744;DHT22;12052;53.478;10.182;2022-11-20T09:02:39;124.50;99.90
23744;DHT22;12052;53.478;10.182;2022-11-20T09:05:05;124.50;99.90
23744;DHT22;12052;53.478;10.182;2022-11-20T09:07:43;124.50;99.90
23744;DHT22;12052;53.478;10.182;2022-11-20T09:10:09;124.50;99.90
23744;DHT22;12052;53.478;10.182;2022-11-20T09:12:38;124.50;99.90
23744;DHT22;12052;53.478;10.182;2022-11-20T09:15:04;124.50;99.90
23744;DHT22;12052;53.478;10.182;2022-11-20T09:17:31;124.50;99.90
23744;DHT22;12052;53.478;10.182;2022-11-20T09:19:57;124.50;99.90
23744;DHT22;12052;53.478;10.182;2022-11-20T09:22:24;124.50;99.90
23744;DHT22;12052;53.478;10.182;2022-11-20T09:24:50;124.50;99.90
23744;DHT22;12052;53.478;10.182;2022-11-20T09:27:17;124.50;99.90
23744;DHT22;12052;53.478;10.182;2022-11-20T09:29:51;124.50;99.90
23744;DHT22;12052;53.478;10.182;2022-11-20T09:32:23;124.50;99.90
23744;DHT22;12052;53.478;10.182;2022-11-20T09:34:49;124.50;99.90
23744;DHT22;12052;53.478;10.182;2022-11-20T09:37:20;124.50;99.90
23744;DHT22;12052;53.478;10.182;2022-11-20T09:39:52;124.50;99.90
23744;DHT22;12052;53.478;10.182;2022-11-20T09:51:36;124.50;99.90
23744;DHT22;12052;53.478;10.182;2022-11-20T09:54:16;124.50;99.90
23744;DHT22;12052;53.478;10.182;2022-11-20T09:56:46;124.50;99.90
23744;DHT22;12052;53.478;10.182;2022-11-20T09:59:29;124.50;99.90
23744;DHT22;12052;53.478;10.182;2022-11-20T10:02:00;124.50;99.90
23744;DHT22;12052;53.478;10.182;2022-11-20T10:04:29;124.50;99.90
23744;DHT22;12052;53.478;10.182;2022-11-20T10:07:04;124.50;99.90
23744;DHT22;12052;53.478;10.182;2022-11-20T10:09:38;124.50;99.90
23744;DHT22;12052;53.478;10.182;2022-11-20T10:12:38;124.50;99.90
23744;DHT22;12052;53.478;10.182;2022-11-20T10:15:24;124.50;99.90
23744;DHT22;12052;53.478;10.182;2022-11-20T10:20:48;124.50;99.90
23744;DHT22;12052;53.478;10.182;2022-11-20T10:23:39;124.50;99.90
23744;DHT22;12052;53.478;10.182;2022-11-20T10:29:09;124.50;99.90
23744;DHT22;12052;53.478;10.182;2022-11-20T10:31:44;124.50;99.90
23744;DHT22;12052;53.478;10.182;2022-11-20T10:34:28;124.50;99.90
23744;DHT22;12052;53.478;10.182;2022-11-20T10:36:59;124.50;99.90
23744;DHT22;12052;53.478;10.182;2022-11-20T10:39:50;124.50;99.90
23744;DHT22;12052;53.478;10.182;2022-11-20T10:42:32;124.50;99.90
23744;DHT22;12052;53.478;10.182;2022-11-20T10:48:07;124.50;99.90
23744;DHT22;12052;53.478;10.182;2022-11-20T10:50:52;124.50;99.90
23744;DHT22;12052;53.478;10.182;2022-11-20T10:56:26;124.50;99.90
23744;DHT22;12052;53.478;10.182;2022-11-20T10:59:05;124.50;99.90
23744;DHT22;12052;53.478;10.182;2022-11-20T11:01:41;124.50;99.90
23744;DHT22;12052;53.478;10.182;2022-11-20T11:04:36;124.50;99.90
23744;DHT22;12052;53.478;10.182;2022-11-20T11:09:54;124.50;99.90
23744;DHT22;12052;53.478;10.182;2022-11-20T11:12:23;124.50;99.90
23744;DHT22;12052;53.478;10.182;2022-11-20T11:14:54;124.50;99.90
23744;DHT22;12052;53.478;10.182;2022-11-20T11:20:14;124.50;99.90
23744;DHT22;12052;53.478;10.182;2022-11-20T11:22:50;124.50;99.90
23744;DHT22;12052;53.478;10.182;2022-11-20T11:25:28;124.50;99.90
23744;DHT22;12052;53.478;10.182;2022-11-20T11:27:57;124.50;99.90
23744;DHT22;12052;53.478;10.182;2022-11-20T11:30:25;124.50;99.90
23744;DHT22;12052;53.478;10.182;2022-11-20T11:33:03;124.50;99.90
23744;DHT22;12052;53.478;10.182;2022-11-20T11:35:30;124.50;99.90
23744;DHT22;12052;53.478;10.182;2022-11-20T11:38:10;124.50;99.90
23744;DHT22;12052;53.478;10.182;2022-11-20T11:40:39;124.50;99.90
23744;DHT22;12052;53.478;10.182;2022-11-20T11:43:17;124.50;99.90
23744;DHT22;12052;53.478;10.182;2022-11-20T11:46:08;124.50;99.90
23744;DHT22;12052;53.478;10.182;2022-11-20T11:49:18;124.50;99.90
23744;DHT22;12052;53.478;10.182;2022-11-20T11:52:04;124.50;99.90
23744;DHT22;12052;53.478;10.182;2022-11-20T11:57:44;124.50;99.90
23744;DHT22;12052;53.478;10.182;2022-11-20T12:00:14;124.50;99.90
23744;DHT22;12052;53.478;10.182;2022-11-20T12:05:20;124.50;99.90
23744;DHT22;12052;53.478;10.182;2022-11-20T12:07:52;124.50;99.90
23744;DHT22;12052;53.478;10.182;2022-11-20T12:13:30;124.50;99.90
23744;DHT22;12052;53.478;10.182;2022-11-20T12:16:00;124.50;99.90
23744;DHT22;12052;53.478;10.182;2022-11-20T12:18:29;124.50;99.90
23744;DHT22;12052;53.478;10.182;2022-11-20T12:23:29;124.50;99.90
23744;DHT22;12052;53.478;10.182;2022-11-20T12:26:02;124.50;99.90
23744;DHT22;12052;53.478;10.182;2022-11-20T12:28:54;124.50;99.90
23744;DHT22;12052;53.478;10.182;2022-11-20T12:34:24;124.50;99.90
23744;DHT22;12052;53.478;10.182;2022-11-20T12:36:56;124.50;99.90
23744;DHT22;12052;53.478;10.182;2022-11-20T12:39:39;124.50;99.90
23744;DHT22;12052;53.478;10.182;2022-11-20T12:42:31;124.50;99.90
23744;DHT22;12052;53.478;10.182;2022-11-20T12:45:37;124.50;99.90
23744;DHT22;12052;53.478;10.182;2022-11-20T12:48:37;124.50;99.90
23744;DHT22;12052;53.478;10.182;2022-11-20T12:54:36;124.50;99.90
23744;DHT22;12052;53.478;10.182;2022-11-20T12:57:34;124.50;99.90
23744;DHT22;12052;53.478;10.182;2022-11-20T13:03:01;124.50;99.90
23744;DHT22;12052;53.478;10.182;2022-11-20T13:08:28;124.50;99.90
23744;DHT22;12052;53.478;10.182;2022-11-20T13:14:12;124.50;99.90
23744;DHT22;12052;53.478;10.182;2022-11-20T13:19:16;124.50;99.90
23744;DHT22;12052;53.478;10.182;2022-11-20T13:21:47;124.50;99.90
23744;DHT22;12052;53.478;10.182;2022-11-20T13:26:46;124.50;99.90
23744;DHT22;12052;53.478;10.182;2022-11-20T13:29:19;124.50;99.90
23744;DHT22;12052;53.478;10.182;2022-11-20T13:31:51;124.50;99.90
23744;DHT22;12052;53.478;10.182;2022-11-20T13:34:27;124.50;99.90
23744;DHT22;12052;53.478;10.182;2022-11-20T13:37:05;124.50;99.90
23744;DHT22;12052;53.478;10.182;2022-11-20T13:39:36;124.50;99.90
23744;DHT22;12052;53.478;10.182;2022-11-20T13:42:27;124.50;99.90
23744;DHT22;12052;53.478;10.182;2022-11-20T13:44:55;124.50;99.90
23744;DHT22;12052;53.478;10.182;2022-11-20T13:47:26;124.50;99.90
23744;DHT22;12052;53.478;10.182;2022-11-20T13:50:03;124.50;99.90
23744;DHT22;12052;53.478;10.182;2022-11-20T13:58:51;124.50;99.90
23744;DHT22;12052;53.478;10.182;2022-11-20T14:01:32;124.50;99.90
23744;DHT22;12052;53.478;10.182;2022-11-20T14:03:59;124.50;99.90
23744;DHT22;12052;53.478;10.182;2022-11-20T14:06:28;124.50;99.90
23744;DHT22;12052;53.478;10.182;2022-11-20T14:08:56;124.50;99.90
23744;DHT22;12052;53.478;10.182;2022-11-20T14:11:30;124.50;99.90
23744;DHT22;12052;53.478;10.182;2022-11-20T14:14:10;124.50;99.90
23744;DHT22;12052;53.478;10.182;2022-11-20T14:16:39;124.50;99.90
23744;DHT22;12052;53.478;10.182;2022-11-20T14:19:28;124.50;99.90
23744;DHT22;12052;53.478;10.182;2022-11-20T14:22:30;124.50;99.90
23744;DHT22;12052;53.478;10.182;2022-11-20T14:27:50;124.50;99.90
23744;DHT22;12052;53.478;10.182;2022-11-20T14:30:22;124.50;99.90
23744;DHT22;12052;53.478;10.182;2022-11-20T14:33:00;124.50;99.90
23744;DHT22;12052;53.478;10.182;2022-11-20T14:35:29;124.50;99.90
23744;DHT22;12052;53.478;10.182;2022-11-20T14:38:04;124.50;99.90
23744;DHT22;12052;53.478;10.182;2022-11-20T14:40:38;124.50;99.90
23744;DHT22;12052;53.478;10.182;2022-11-20T14:43:34;124.50;99.90
23744;DHT22;12052;53.478;10.182;2022-11-20T14:46:10;124.50;99.90
23744;DHT22;12052;53.478;10.182;2022-11-20T14:51:38;124.50;99.90
23744;DHT22;12052;53.478;10.182;2022-11-20T14:54:27;124.50;99.90
23744;DHT22;12052;53.478;10.182;2022-11-20T14:57:04;124.50;99.90
23744;DHT22;12052;53.478;10.182;2022-11-20T14:59:34;124.50;99.90
23744;DHT22;12052;53.478;10.182;2022-11-20T15:02:08;124.50;99.90
23744;DHT22;12052;53.478;10.182;2022-11-20T15:04:57;124.50;99.90
23744;DHT22;12052;53.478;10.182;2022-11-20T15:07:37;124.50;99.90
23744;DHT22;12052;53.478;10.182;2022-11-20T15:10:18;124.50;99.90
23744;DHT22;12052;53.478;10.182;2022-11-20T15:12:55;124.50;99.90
23744;DHT22;12052;53.478;10.182;2022-11-20T15:15:49;124.50;99.90
23744;DHT22;12052;53.478;10.182;2022-11-20T15:18:23;124.50;99.90
23744;DHT22;12052;53.478;10.182;2022-11-20T15:20:56;124.50;99.90
23744;DHT22;12052;53.478;10.182;2022-11-20T15:23:39;124.50;99.90
23744;DHT22;12052;53.478;10.182;2022-11-20T15:26:15;124.50;99.90
23744;DHT22;12052;53.478;10.182;2022-11-20T15:28:47;124.50;99.90
23744;DHT22;12052;53.478;10.182;2022-11-20T15:31:21;124.50;99.90
23744;DHT22;12052;53.478;10.182;2022-11-20T15:33:48;124.50;99.90
23744;DHT22;12052;53.478;10.182;2022-11-20T15:36:22;124.50;99.90
23744;DHT22;12052;53.478;10.182;2022-11-20T15:38:51;124.50;99.90
23744;DHT22;12052;53.478;10.182;2022-11-20T15:41:19;124.50;99.90
23744;DHT22;12052;53.478;10.182;2022-11-20T15:43:48;124.50;99.90
23744;DHT22;12052;53.478;10.182;2022-11-20T15:46:25;124.50;99.90
23744;DHT22;12052;53.478;10.182;2022-11-20T15:49:02;124.50;99.90
23744;DHT22;12052;53.478;10.182;2022-11-20T15:51:39;124.50;99.90
23744;DHT22;12052;53.478;10.182;2022-11-20T15:54:14;124.50;99.90
23744;DHT22;12052;53.478;10.182;2022-11-20T15:56:50;124.50;99.90
23744;DHT22;12052;53.478;10.182;2022-11-20T15:59:29;124.50;99.90
23744;DHT22;12052;53.478;10.182;2022-11-20T16:01:58;124.50;99.90
23744;DHT22;12052;53.478;10.182;2022-11-20T16:04:29;124.50;99.90
23744;DHT22;12052;53.478;10.182;2022-11-20T16:06:58;124.50;99.90
23744;DHT22;12052;53.478;10.182;2022-11-20T16:09:32;124.50;99.90
23744;DHT22;12052;53.478;10.182;2022-11-20T16:12:02;124.50;99.90
23744;DHT22;12052;53.478;10.182;2022-11-20T16:14:29;124.50;99.90
23744;DHT22;12052;53.478;10.182;2022-11-20T16:17:16;124.50;99.90
23744;DHT22;12052;53.478;10.182;2022-11-20T16:20:09;124.50;99.90
23744;DHT22;12052;53.478;10.182;2022-11-20T16:22:35;124.50;99.90
23744;DHT22;12052;53.478;10.182;2022-11-20T16:25:08;124.50;99.90
23744;DHT22;12052;53.478;10.182;2022-11-20T16:27:40;124.50;99.90
23744;DHT22;12052;53.478;10.182;2022-11-20T16:30:11;124.50;99.90
23744;DHT22;12052;53.478;10.182;2022-11-20T16:32:40;124.50;99.90
23744;DHT22;12052;53.478;10.182;2022-11-20T16:35:10;124.50;99.90
23744;DHT22;12052;53.478;10.182;2022-11-20T16:37:36;124.50;99.90
23744;DHT22;12052;53.478;10.182;2022-11-20T16:40:02;124.50;99.90
23744;DHT22;12052;53.478;10.182;2022-11-20T16:42:33;124.50;99.90
23744;DHT22;12052;53.478;10.182;2022-11-20T16:44:59;124.50;99.90
23744;DHT22;12052;53.478;10.182;2022-11-20T16:47:32;124.50;99.90
23744;DHT22;12052;53.478;10.182;2022-11-20T16:50:04;124.50;99.90
23744;DHT22;12052;53.478;10.182;2022-11-20T16:52:38;124.50;99.90
23744;DHT22;12052;53.478;10.182;2022-11-20T16:55:07;124.50;99.90